sensor_id;sensor_type;location;lat;lon;timestamp;temperature;humidity
5134;DHT22;2585;48.696;10.066;2024-01-27T00:02:09;-0.20;93.50
5134;DHT22;2585;48.696;10.066;2024-01-27T00:04:36;-0.20;93.50
5134;DHT22;2585;48.696;10.066;2024-01-27T00:07:06;-0.20;93.50
5134;DHT22;2585;48.696;10.066;2024-01-27T00:09:33;-0.30;93.50
5134;DHT22;2585;48.696;10.066;2024-01-27T00:12:00;-0.30;93.50
5134;DHT22;2585;48.696;10.066;2024-01-27T00:14:28;-0.30;93.50
5134;DHT22;2585;48.696;10.066;2024-01-27T00:16:54;-0.30;93.50
5134;DHT22;2585;48.696;10.066;2024-01-27T00:19:21;-0.30;93.50
5134;DHT22;2585;48.696;10.066;2024-01-27T00:21:48;-0.30;93.50
5134;DHT22;2585;48.696;10.066;2024-01-27T00:24:15;-0.40;93.50
5134;DHT22;2585;48.696;10.066;2024-01-27T00:26:43;-0.40;93.50
5134;DHT22;2585;48.696;10.066;2024-01-27T00:29:10;-0.50;93.50
5134;DHT22;2585;48.696;10.066;2024-01-27T00:31:37;-0.50;93.50
5134;DHT22;2585;48.696;10.066;2024-01-27T00:34:04;-0.50;93.50
5134;DHT22;2585;48.696;10.066;2024-01-27T00:36:31;-0.50;93.50
5134;DHT22;2585;48.696;10.066;2024-01-27T00:38:58;-0.50;93.50
5134;DHT22;2585;48.696;10.066;2024-01-27T00:41:25;-0.50;93.50
5134;DHT22;2585;48.696;10.066;2024-01-27T00:43:51;-0.50;93.50
5134;DHT22;2585;48.696;10.066;2024-01-27T00:46:18;-0.50;93.50
5134;DHT22;2585;48.696;10.066;2024-01-27T00:48:45;-0.60;93.50
5134;DHT22;2585;48.696;10.066;2024-01-27T00:51:13;-0.60;93.50
5134;DHT22;2585;48.696;10.066;2024-01-27T00:53:40;-0.60;93.50
5134;DHT22;2585;48.696;10.066;2024-01-27T00:56:07;-0.60;93.50
5134;DHT22;2585;48.696;10.066;2024-01-27T00:58:34;-0.50;93.50
5134;DHT22;2585;48.696;10.066;2024-01-27T01:01:01;-0.50;93.60
5134;DHT22;2585;48.696;10.066;2024-01-27T01:03:28;-0.50;93.60
5134;DHT22;2585;48.696;10.066;2024-01-27T01:05:55;-0.40;93.60
5134;DHT22;2585;48.696;10.066;2024-01-27T01:08:22;-0.40;93.70
5134;DHT22;2585;48.696;10.066;2024-01-27T01:10:49;-0.30;93.70
5134;DHT22;2585;48.696;10.066;2024-01-27T01:13:16;-0.30;93.80
5134;DHT22;2585;48.696;10.066;2024-01-27T01:15:43;-0.20;93.80
5134;DHT22;2585;48.696;10.066;2024-01-27T01:18:10;-0.20;93.90
5134;DHT22;2585;48.696;10.066;2024-01-27T01:20:37;-0.20;93.90
5134;DHT22;2585;48.696;10.066;2024-01-27T01:23:03;-0.10;93.90
5134;DHT22;2585;48.696;10.066;2024-01-27T01:25:30;-0.10;94.00
5134;DHT22;2585;48.696;10.066;2024-01-27T01:27:57;0.00;94.00
5134;DHT22;2585;48.696;10.066;2024-01-27T01:30:24;0.00;94.00
5134;DHT22;2585;48.696;10.066;2024-01-27T01:32:51;0.10;94.00
5134;DHT22;2585;48.696;10.066;2024-01-27T01:35:18;0.10;94.10
5134;DHT22;2585;48.696;10.066;2024-01-27T01:37:45;0.10;94.10
5134;DHT22;2585;48.696;10.066;2024-01-27T01:40:14;0.10;94.10
5134;DHT22;2585;48.696;10.066;2024-01-27T01:42:42;0.10;94.10
5134;DHT22;2585;48.696;10.066;2024-01-27T01:45:11;0.10;94.10
5134;DHT22;2585;48.696;10.066;2024-01-27T01:47:39;0.10;94.10
5134;DHT22;2585;48.696;10.066;2024-01-27T01:50:08;0.10;94.10
5134;DHT22;2585;48.696;10.066;2024-01-27T01:52:36;0.10;94.10
5134;DHT22;2585;48.696;10.066;2024-01-27T01:55:03;0.10;94.10
5134;DHT22;2585;48.696;10.066;2024-01-27T01:57:33;0.10;94.10
5134;DHT22;2585;48.696;10.066;2024-01-27T02:00:00;0.10;94.10
5134;DHT22;2585;48.696;10.066;2024-01-27T02:02:27;0.00;94.10
5134;DHT22;2585;48.696;10.066;2024-01-27T02:04:53;0.00;94.10
5134;DHT22;2585;48.696;10.066;2024-01-27T02:07:20;0.00;94.10
5134;DHT22;2585;48.696;10.066;2024-01-27T02:09:47;-0.10;94.10
5134;DHT22;2585;48.696;10.066;2024-01-27T02:12:14;-0.10;94.10
5134;DHT22;2585;48.696;10.066;2024-01-27T02:14:41;-0.10;94.10
5134;DHT22;2585;48.696;10.066;2024-01-27T02:17:08;-0.20;94.10
5134;DHT22;2585;48.696;10.066;2024-01-27T02:19:34;-0.20;94.10
5134;DHT22;2585;48.696;10.066;2024-01-27T02:22:02;-0.20;94.10
5134;DHT22;2585;48.696;10.066;2024-01-27T02:24:29;-0.20;94.10
5134;DHT22;2585;48.696;10.066;2024-01-27T02:26:56;-0.20;94.10
5134;DHT22;2585;48.696;10.066;2024-01-27T02:29:23;-0.20;94.10
5134;DHT22;2585;48.696;10.066;2024-01-27T02:31:50;-0.30;94.10
5134;DHT22;2585;48.696;10.066;2024-01-27T02:34:16;-0.30;94.10
5134;DHT22;2585;48.696;10.066;2024-01-27T02:36:43;-0.30;94.10
5134;DHT22;2585;48.696;10.066;2024-01-27T02:39:10;-0.30;94.10
5134;DHT22;2585;48.696;10.066;2024-01-27T02:41:37;-0.30;94.10
5134;DHT22;2585;48.696;10.066;2024-01-27T02:44:06;-0.30;94.10
5134;DHT22;2585;48.696;10.066;2024-01-27T02:46:32;-0.30;94.10
5134;DHT22;2585;48.696;10.066;2024-01-27T02:48:59;-0.30;94.10
5134;DHT22;2585;48.696;10.066;2024-01-27T02:51:26;-0.20;94.10
5134;DHT22;2585;48.696;10.066;2024-01-27T02:53:53;-0.20;94.10
5134;DHT22;2585;48.696;10.066;2024-01-27T02:56:20;-0.20;94.10
5134;DHT22;2585;48.696;10.066;2024-01-27T02:58:47;-0.10;94.20
5134;DHT22;2585;48.696;10.066;2024-01-27T03:01:14;-0.10;94.20
5134;DHT22;2585;48.696;10.066;2024-01-27T03:03:41;-0.10;94.20
5134;DHT22;2585;48.696;10.066;2024-01-27T03:06:08;0.00;94.20
5134;DHT22;2585;48.696;10.066;2024-01-27T03:08:35;0.00;94.20
5134;DHT22;2585;48.696;10.066;2024-01-27T03:11:02;0.00;94.20
5134;DHT22;2585;48.696;10.066;2024-01-27T03:13:29;0.00;94.20
5134;DHT22;2585;48.696;10.066;2024-01-27T03:15:56;0.00;94.20
5134;DHT22;2585;48.696;10.066;2024-01-27T03:18:23;0.00;94.20
5134;DHT22;2585;48.696;10.066;2024-01-27T03:20:51;-0.10;94.20
5134;DHT22;2585;48.696;10.066;2024-01-27T03:23:18;-0.10;94.20
5134;DHT22;2585;48.696;10.066;2024-01-27T03:25:45;-0.10;94.20
5134;DHT22;2585;48.696;10.066;2024-01-27T03:28:12;-0.10;94.20
5134;DHT22;2585;48.696;10.066;2024-01-27T03:30:39;-0.10;94.20
5134;DHT22;2585;48.696;10.066;2024-01-27T03:33:06;-0.10;94.20
5134;DHT22;2585;48.696;10.066;2024-01-27T03:35:37;-0.20;94.20
5134;DHT22;2585;48.696;10.066;2024-01-27T03:38:05;-0.20;94.20
5134;DHT22;2585;48.696;10.066;2024-01-27T03:40:32;-0.20;94.20
5134;DHT22;2585;48.696;10.066;2024-01-27T03:42:59;-0.20;94.20
5134;DHT22;2585;48.696;10.066;2024-01-27T03:45:26;-0.20;94.20
5134;DHT22;2585;48.696;10.066;2024-01-27T03:47:53;-0.30;94.20
5134;DHT22;2585;48.696;10.066;2024-01-27T03:50:20;-0.20;94.20
5134;DHT22;2585;48.696;10.066;2024-01-27T03:52:47;-0.30;94.20
5134;DHT22;2585;48.696;10.066;2024-01-27T03:55:14;-0.30;94.20
5134;DHT22;2585;48.696;10.066;2024-01-27T03:57:41;-0.30;94.20
5134;DHT22;2585;48.696;10.066;2024-01-27T04:00:08;-0.30;94.20
5134;DHT22;2585;48.696;10.066;2024-01-27T04:02:35;-0.30;94.20
5134;DHT22;2585;48.696;10.066;2024-01-27T04:05:02;-0.30;94.20
5134;DHT22;2585;48.696;10.066;2024-01-27T04:07:29;-0.40;94.10
5134;DHT22;2585;48.696;10.066;2024-01-27T04:09:56;-0.40;94.10
5134;DHT22;2585;48.696;10.066;2024-01-27T04:12:23;-0.40;94.10
5134;DHT22;2585;48.696;10.066;2024-01-27T04:14:49;-0.40;94.10
5134;DHT22;2585;48.696;10.066;2024-01-27T04:17:16;-0.40;94.10
5134;DHT22;2585;48.696;10.066;2024-01-27T04:19:43;-0.40;94.10
5134;DHT22;2585;48.696;10.066;2024-01-27T04:22:10;-0.40;94.10
5134;DHT22;2585;48.696;10.066;2024-01-27T04:24:37;-0.40;94.10
5134;DHT22;2585;48.696;10.066;2024-01-27T04:27:04;-0.50;94.10
5134;DHT22;2585;48.696;10.066;2024-01-27T04:29:31;-0.40;94.20
5134;DHT22;2585;48.696;10.066;2024-01-27T04:31:58;-0.40;94.20
5134;DHT22;2585;48.696;10.066;2024-01-27T04:34:24;-0.40;94.20
5134;DHT22;2585;48.696;10.066;2024-01-27T04:36:51;-0.40;94.20
5134;DHT22;2585;48.696;10.066;2024-01-27T04:39:19;-0.40;94.20
5134;DHT22;2585;48.696;10.066;2024-01-27T04:41:45;-0.50;94.10
5134;DHT22;2585;48.696;10.066;2024-01-27T04:44:12;-0.50;94.10
5134;DHT22;2585;48.696;10.066;2024-01-27T04:46:39;-0.50;94.10
5134;DHT22;2585;48.696;10.066;2024-01-27T04:51:33;-0.50;94.10
5134;DHT22;2585;48.696;10.066;2024-01-27T04:54:00;-0.50;94.10
5134;DHT22;2585;48.696;10.066;2024-01-27T04:56:27;-0.50;94.10
5134;DHT22;2585;48.696;10.066;2024-01-27T04:58:54;-0.60;94.10
5134;DHT22;2585;48.696;10.066;2024-01-27T05:01:21;-0.60;94.10
5134;DHT22;2585;48.696;10.066;2024-01-27T05:03:48;-0.60;94.10
5134;DHT22;2585;48.696;10.066;2024-01-27T05:06:15;-0.60;94.10
5134;DHT22;2585;48.696;10.066;2024-01-27T05:08:43;-0.50;94.10
5134;DHT22;2585;48.696;10.066;2024-01-27T05:11:10;-0.60;94.10
5134;DHT22;2585;48.696;10.066;2024-01-27T05:13:37;-0.50;94.10
5134;DHT22;2585;48.696;10.066;2024-01-27T05:16:07;-0.60;94.10
5134;DHT22;2585;48.696;10.066;2024-01-27T05:18:33;-0.50;94.10
5134;DHT22;2585;48.696;10.066;2024-01-27T05:21:00;-0.60;94.10
5134;DHT22;2585;48.696;10.066;2024-01-27T05:23:27;-0.60;94.10
5134;DHT22;2585;48.696;10.066;2024-01-27T05:25:54;-0.60;94.10
5134;DHT22;2585;48.696;10.066;2024-01-27T05:28:21;-0.60;94.10
5134;DHT22;2585;48.696;10.066;2024-01-27T05:30:48;-0.60;94.10
5134;DHT22;2585;48.696;10.066;2024-01-27T05:33:15;-0.50;94.10
5134;DHT22;2585;48.696;10.066;2024-01-27T05:35:43;-0.60;94.10
5134;DHT22;2585;48.696;10.066;2024-01-27T05:38:10;-0.50;94.10
5134;DHT22;2585;48.696;10.066;2024-01-27T05:40:37;-0.50;94.20
5134;DHT22;2585;48.696;10.066;2024-01-27T05:43:07;-0.50;94.20
5134;DHT22;2585;48.696;10.066;2024-01-27T05:45:34;-0.50;94.20
5134;DHT22;2585;48.696;10.066;2024-01-27T05:48:01;-0.60;94.10
5134;DHT22;2585;48.696;10.066;2024-01-27T05:50:28;-0.60;94.10
5134;DHT22;2585;48.696;10.066;2024-01-27T05:52:57;-0.60;94.10
5134;DHT22;2585;48.696;10.066;2024-01-27T05:55:24;-0.60;94.10
5134;DHT22;2585;48.696;10.066;2024-01-27T05:57:51;-0.60;94.10
5134;DHT22;2585;48.696;10.066;2024-01-27T06:00:18;-0.70;94.10
5134;DHT22;2585;48.696;10.066;2024-01-27T06:02:44;-0.70;94.10
5134;DHT22;2585;48.696;10.066;2024-01-27T06:05:11;-0.60;94.10
5134;DHT22;2585;48.696;10.066;2024-01-27T06:07:38;-0.60;94.10
5134;DHT22;2585;48.696;10.066;2024-01-27T06:10:08;-0.60;94.10
5134;DHT22;2585;48.696;10.066;2024-01-27T06:12:37;-0.60;94.10
5134;DHT22;2585;48.696;10.066;2024-01-27T06:15:04;-0.60;94.10
5134;DHT22;2585;48.696;10.066;2024-01-27T06:17:32;-0.50;94.20
5134;DHT22;2585;48.696;10.066;2024-01-27T06:19:59;-0.50;94.20
5134;DHT22;2585;48.696;10.066;2024-01-27T06:22:26;-0.40;94.20
5134;DHT22;2585;48.696;10.066;2024-01-27T06:24:53;-0.40;94.20
5134;DHT22;2585;48.696;10.066;2024-01-27T06:27:20;-0.40;94.20
5134;DHT22;2585;48.696;10.066;2024-01-27T06:29:47;-0.40;94.20
5134;DHT22;2585;48.696;10.066;2024-01-27T06:32:13;-0.40;94.20
5134;DHT22;2585;48.696;10.066;2024-01-27T06:34:40;-0.40;94.20
5134;DHT22;2585;48.696;10.066;2024-01-27T06:37:07;-0.30;94.20
5134;DHT22;2585;48.696;10.066;2024-01-27T06:39:34;-0.30;94.20
5134;DHT22;2585;48.696;10.066;2024-01-27T06:42:01;-0.20;94.20
5134;DHT22;2585;48.696;10.066;2024-01-27T06:44:28;-0.20;94.20
5134;DHT22;2585;48.696;10.066;2024-01-27T06:46:55;-0.20;94.20
5134;DHT22;2585;48.696;10.066;2024-01-27T06:49:22;-0.20;94.20
5134;DHT22;2585;48.696;10.066;2024-01-27T06:51:49;-0.10;94.30
5134;DHT22;2585;48.696;10.066;2024-01-27T06:54:16;-0.10;94.30
5134;DHT22;2585;48.696;10.066;2024-01-27T06:56:43;-0.10;94.30
5134;DHT22;2585;48.696;10.066;2024-01-27T06:59:09;0.00;94.30
5134;DHT22;2585;48.696;10.066;2024-01-27T07:01:36;0.00;94.30
5134;DHT22;2585;48.696;10.066;2024-01-27T07:04:03;0.10;94.30
5134;DHT22;2585;48.696;10.066;2024-01-27T07:06:30;0.00;94.30
5134;DHT22;2585;48.696;10.066;2024-01-27T07:08:57;-0.10;94.20
5134;DHT22;2585;48.696;10.066;2024-01-27T07:11:24;0.00;94.20
5134;DHT22;2585;48.696;10.066;2024-01-27T07:13:51;-0.10;94.20
5134;DHT22;2585;48.696;10.066;2024-01-27T07:16:17;-0.30;94.20
5134;DHT22;2585;48.696;10.066;2024-01-27T07:18:44;-0.40;94.10
5134;DHT22;2585;48.696;10.066;2024-01-27T07:21:15;-0.50;94.10
5134;DHT22;2585;48.696;10.066;2024-01-27T07:23:43;-0.60;94.10
5134;DHT22;2585;48.696;10.066;2024-01-27T07:26:11;-0.70;94.00
5134;DHT22;2585;48.696;10.066;2024-01-27T07:28:39;-0.80;94.00
5134;DHT22;2585;48.696;10.066;2024-01-27T07:31:06;-0.80;94.00
5134;DHT22;2585;48.696;10.066;2024-01-27T07:33:34;-0.80;94.00
5134;DHT22;2585;48.696;10.066;2024-01-27T07:36:01;-0.90;94.00
5134;DHT22;2585;48.696;10.066;2024-01-27T07:38:28;-0.90;94.00
5134;DHT22;2585;48.696;10.066;2024-01-27T07:40:55;-0.90;94.00
5134;DHT22;2585;48.696;10.066;2024-01-27T07:43:25;-0.90;94.00
5134;DHT22;2585;48.696;10.066;2024-01-27T07:45:51;-0.90;94.00
5134;DHT22;2585;48.696;10.066;2024-01-27T07:48:20;-1.00;94.00
5134;DHT22;2585;48.696;10.066;2024-01-27T07:50:47;-0.90;94.00
5134;DHT22;2585;48.696;10.066;2024-01-27T07:53:16;-0.90;94.00
5134;DHT22;2585;48.696;10.066;2024-01-27T07:55:42;-1.00;94.00
5134;DHT22;2585;48.696;10.066;2024-01-27T07:58:09;-1.00;94.00
5134;DHT22;2585;48.696;10.066;2024-01-27T08:00:36;-1.00;94.00
5134;DHT22;2585;48.696;10.066;2024-01-27T08:03:03;-0.80;94.00
5134;DHT22;2585;48.696;10.066;2024-01-27T08:05:30;-0.90;94.00
5134;DHT22;2585;48.696;10.066;2024-01-27T08:07:57;-0.90;94.00
5134;DHT22;2585;48.696;10.066;2024-01-27T08:10:24;-0.80;94.00
5134;DHT22;2585;48.696;10.066;2024-01-27T08:12:51;-0.80;94.00
5134;DHT22;2585;48.696;10.066;2024-01-27T08:15:17;-0.80;94.00
5134;DHT22;2585;48.696;10.066;2024-01-27T08:17:44;-0.80;94.00
5134;DHT22;2585;48.696;10.066;2024-01-27T08:20:11;-0.80;94.00
5134;DHT22;2585;48.696;10.066;2024-01-27T08:22:39;-0.80;94.10
5134;DHT22;2585;48.696;10.066;2024-01-27T08:25:06;-0.70;94.10
5134;DHT22;2585;48.696;10.066;2024-01-27T08:27:33;-0.70;94.10
5134;DHT22;2585;48.696;10.066;2024-01-27T08:30:00;-0.70;94.10
5134;DHT22;2585;48.696;10.066;2024-01-27T08:32:27;-0.60;94.10
5134;DHT22;2585;48.696;10.066;2024-01-27T08:34:54;-0.60;94.10
5134;DHT22;2585;48.696;10.066;2024-01-27T08:37:21;-0.50;94.10
5134;DHT22;2585;48.696;10.066;2024-01-27T08:39:48;-0.50;94.20
5134;DHT22;2585;48.696;10.066;2024-01-27T08:42:17;-0.40;94.20
5134;DHT22;2585;48.696;10.066;2024-01-27T08:44:44;-0.30;94.20
5134;DHT22;2585;48.696;10.066;2024-01-27T08:47:11;-0.20;94.20
5134;DHT22;2585;48.696;10.066;2024-01-27T08:49:38;0.00;94.30
5134;DHT22;2585;48.696;10.066;2024-01-27T08:52:05;0.00;94.30
5134;DHT22;2585;48.696;10.066;2024-01-27T08:54:32;0.00;94.30
5134;DHT22;2585;48.696;10.066;2024-01-27T08:56:58;0.00;94.30
5134;DHT22;2585;48.696;10.066;2024-01-27T08:59:25;0.10;94.30
5134;DHT22;2585;48.696;10.066;2024-01-27T09:01:52;0.30;94.40
5134;DHT22;2585;48.696;10.066;2024-01-27T09:04:19;0.40;94.40
5134;DHT22;2585;48.696;10.066;2024-01-27T09:06:46;0.50;94.40
5134;DHT22;2585;48.696;10.066;2024-01-27T09:09:13;0.60;94.40
5134;DHT22;2585;48.696;10.066;2024-01-27T09:11:40;0.70;94.50
5134;DHT22;2585;48.696;10.066;2024-01-27T09:14:07;0.80;94.50
5134;DHT22;2585;48.696;10.066;2024-01-27T09:16:34;0.80;94.50
5134;DHT22;2585;48.696;10.066;2024-01-27T09:19:01;0.90;94.50
5134;DHT22;2585;48.696;10.066;2024-01-27T09:21:28;1.00;94.50
5134;DHT22;2585;48.696;10.066;2024-01-27T09:23:57;1.00;94.50
5134;DHT22;2585;48.696;10.066;2024-01-27T09:26:24;1.10;94.50
5134;DHT22;2585;48.696;10.066;2024-01-27T09:28:51;1.30;94.60
5134;DHT22;2585;48.696;10.066;2024-01-27T09:31:22;1.40;94.60
5134;DHT22;2585;48.696;10.066;2024-01-27T09:33:50;1.60;94.70
5134;DHT22;2585;48.696;10.066;2024-01-27T09:36:19;1.90;94.70
5134;DHT22;2585;48.696;10.066;2024-01-27T09:38:47;2.20;94.80
5134;DHT22;2585;48.696;10.066;2024-01-27T09:41:14;2.60;94.90
5134;DHT22;2585;48.696;10.066;2024-01-27T09:43:45;2.80;94.90
5134;DHT22;2585;48.696;10.066;2024-01-27T09:46:13;3.10;95.00
5134;DHT22;2585;48.696;10.066;2024-01-27T09:48:41;3.20;95.00
5134;DHT22;2585;48.696;10.066;2024-01-27T09:51:09;3.50;95.00
5134;DHT22;2585;48.696;10.066;2024-01-27T09:53:37;3.80;95.10
5134;DHT22;2585;48.696;10.066;2024-01-27T09:56:04;3.70;95.00
5134;DHT22;2585;48.696;10.066;2024-01-27T09:58:31;4.00;95.00
5134;DHT22;2585;48.696;10.066;2024-01-27T10:00:59;4.20;95.10
5134;DHT22;2585;48.696;10.066;2024-01-27T10:03:28;4.40;95.10
5134;DHT22;2585;48.696;10.066;2024-01-27T10:05:56;4.70;95.10
5134;DHT22;2585;48.696;10.066;2024-01-27T10:08:23;4.70;95.00
5134;DHT22;2585;48.696;10.066;2024-01-27T10:10:59;5.10;95.20
5134;DHT22;2585;48.696;10.066;2024-01-27T10:13:27;5.40;95.20
5134;DHT22;2585;48.696;10.066;2024-01-27T10:18:29;5.40;95.00
5134;DHT22;2585;48.696;10.066;2024-01-27T10:20:56;5.20;94.90
5134;DHT22;2585;48.696;10.066;2024-01-27T10:23:24;5.80;95.10
5134;DHT22;2585;48.696;10.066;2024-01-27T10:25:53;5.70;94.90
5134;DHT22;2585;48.696;10.066;2024-01-27T10:28:23;5.70;94.80
5134;DHT22;2585;48.696;10.066;2024-01-27T10:30:50;6.10;95.00
5134;DHT22;2585;48.696;10.066;2024-01-27T10:33:17;6.30;90.30
5134;DHT22;2585;48.696;10.066;2024-01-27T10:35:44;6.50;90.30
5134;DHT22;2585;48.696;10.066;2024-01-27T10:38:11;6.70;90.30
5134;DHT22;2585;48.696;10.066;2024-01-27T10:40:38;6.90;90.30
5134;DHT22;2585;48.696;10.066;2024-01-27T10:43:06;7.10;90.10
5134;DHT22;2585;48.696;10.066;2024-01-27T10:45:38;7.30;90.10
5134;DHT22;2585;48.696;10.066;2024-01-27T10:48:07;7.30;89.70
5134;DHT22;2585;48.696;10.066;2024-01-27T10:50:39;7.40;89.40
5134;DHT22;2585;48.696;10.066;2024-01-27T10:53:23;7.40;88.40
5134;DHT22;2585;48.696;10.066;2024-01-27T10:55:58;6.70;86.00
5134;DHT22;2585;48.696;10.066;2024-01-27T10:58:26;6.50;84.70
5134;DHT22;2585;48.696;10.066;2024-01-27T11:00:56;7.10;85.70
5134;DHT22;2585;48.696;10.066;2024-01-27T11:03:24;7.20;84.80
5134;DHT22;2585;48.696;10.066;2024-01-27T11:05:52;7.60;84.80
5134;DHT22;2585;48.696;10.066;2024-01-27T11:08:23;7.30;82.10
5134;DHT22;2585;48.696;10.066;2024-01-27T11:10:55;7.20;79.10
5134;DHT22;2585;48.696;10.066;2024-01-27T11:13:22;7.50;79.40
5134;DHT22;2585;48.696;10.066;2024-01-27T11:15:52;7.90;79.20
5134;DHT22;2585;48.696;10.066;2024-01-27T11:18:19;8.00;76.40
5134;DHT22;2585;48.696;10.066;2024-01-27T11:20:47;7.80;71.00
5134;DHT22;2585;48.696;10.066;2024-01-27T11:23:13;7.80;71.60
5134;DHT22;2585;48.696;10.066;2024-01-27T11:25:41;8.40;75.00
5134;DHT22;2585;48.696;10.066;2024-01-27T11:28:15;8.80;71.70
5134;DHT22;2585;48.696;10.066;2024-01-27T11:30:47;9.10;68.00
5134;DHT22;2585;48.696;10.066;2024-01-27T11:33:14;9.30;63.00
5134;DHT22;2585;48.696;10.066;2024-01-27T11:35:41;9.50;41.10
5134;DHT22;2585;48.696;10.066;2024-01-27T11:38:08;9.70;20.30
5134;DHT22;2585;48.696;10.066;2024-01-27T11:40:46;9.40;1.00
5134;DHT22;2585;48.696;10.066;2024-01-27T11:43:13;9.30;1.00
5134;DHT22;2585;48.696;10.066;2024-01-27T11:45:42;9.20;82.00
5134;DHT22;2585;48.696;10.066;2024-01-27T11:48:09;9.20;25.90
5134;DHT22;2585;48.696;10.066;2024-01-27T11:50:36;9.40;1.00
5134;DHT22;2585;48.696;10.066;2024-01-27T11:53:04;9.50;8.00
5134;DHT22;2585;48.696;10.066;2024-01-27T11:55:37;9.80;1.00
5134;DHT22;2585;48.696;10.066;2024-01-27T11:58:04;9.80;63.50
5134;DHT22;2585;48.696;10.066;2024-01-27T12:00:32;10.00;4.40
5134;DHT22;2585;48.696;10.066;2024-01-27T12:02:59;10.20;1.00
5134;DHT22;2585;48.696;10.066;2024-01-27T12:05:26;10.20;89.70
5134;DHT22;2585;48.696;10.066;2024-01-27T12:07:53;10.30;60.60
5134;DHT22;2585;48.696;10.066;2024-01-27T12:10:19;9.70;83.50
5134;DHT22;2585;48.696;10.066;2024-01-27T12:12:46;9.40;5.90
5134;DHT22;2585;48.696;10.066;2024-01-27T12:15:13;9.20;1.00
5134;DHT22;2585;48.696;10.066;2024-01-27T12:17:41;9.70;1.00
5134;DHT22;2585;48.696;10.066;2024-01-27T12:20:14;10.00;1.00
5134;DHT22;2585;48.696;10.066;2024-01-27T12:22:44;10.20;70.20
5134;DHT22;2585;48.696;10.066;2024-01-27T12:25:12;10.50;68.30
5134;DHT22;2585;48.696;10.066;2024-01-27T12:27:42;10.60;1.00
5134;DHT22;2585;48.696;10.066;2024-01-27T12:30:09;10.90;1.00
5134;DHT22;2585;48.696;10.066;2024-01-27T12:32:37;10.70;90.30
5134;DHT22;2585;48.696;10.066;2024-01-27T12:35:07;10.70;73.40
5134;DHT22;2585;48.696;10.066;2024-01-27T12:37:35;10.50;14.60
5134;DHT22;2585;48.696;10.066;2024-01-27T12:40:02;10.70;1.00
5134;DHT22;2585;48.696;10.066;2024-01-27T12:42:29;10.70;1.00
5134;DHT22;2585;48.696;10.066;2024-01-27T12:44:56;10.60;1.00
5134;DHT22;2585;48.696;10.066;2024-01-27T12:47:23;10.50;87.40
5134;DHT22;2585;48.696;10.066;2024-01-27T12:49:50;10.40;77.00
5134;DHT22;2585;48.696;10.066;2024-01-27T12:52:17;10.30;64.30
5134;DHT22;2585;48.696;10.066;2024-01-27T12:54:44;10.50;59.90
5134;DHT22;2585;48.696;10.066;2024-01-27T12:57:11;10.90;52.70
5134;DHT22;2585;48.696;10.066;2024-01-27T12:59:38;10.80;1.00
5134;DHT22;2585;48.696;10.066;2024-01-27T13:02:05;10.50;1.00
5134;DHT22;2585;48.696;10.066;2024-01-27T13:04:32;10.50;1.00
5134;DHT22;2585;48.696;10.066;2024-01-27T13:06:59;10.40;1.00
5134;DHT22;2585;48.696;10.066;2024-01-27T13:09:26;10.60;90.60
5134;DHT22;2585;48.696;10.066;2024-01-27T13:11:53;10.50;79.30
5134;DHT22;2585;48.696;10.066;2024-01-27T13:14:20;9.90;54.80
5134;DHT22;2585;48.696;10.066;2024-01-27T13:16:48;10.10;43.70
5134;DHT22;2585;48.696;10.066;2024-01-27T13:19:15;9.70;1.00
5134;DHT22;2585;48.696;10.066;2024-01-27T13:21:42;9.70;70.20
5134;DHT22;2585;48.696;10.066;2024-01-27T13:24:09;9.50;60.30
5134;DHT22;2585;48.696;10.066;2024-01-27T13:26:36;9.40;32.30
5134;DHT22;2585;48.696;10.066;2024-01-27T13:29:06;9.40;15.20
5134;DHT22;2585;48.696;10.066;2024-01-27T13:31:33;9.50;3.00
5134;DHT22;2585;48.696;10.066;2024-01-27T13:34:00;9.60;1.00
5134;DHT22;2585;48.696;10.066;2024-01-27T13:36:32;9.60;1.00
5134;DHT22;2585;48.696;10.066;2024-01-27T13:39:00;9.40;1.00
5134;DHT22;2585;48.696;10.066;2024-01-27T13:41:27;9.20;1.00
5134;DHT22;2585;48.696;10.066;2024-01-27T13:43:54;9.10;1.00
5134;DHT22;2585;48.696;10.066;2024-01-27T13:46:21;9.50;1.00
5134;DHT22;2585;48.696;10.066;2024-01-27T13:48:51;9.50;1.00
5134;DHT22;2585;48.696;10.066;2024-01-27T13:51:18;9.30;1.00
5134;DHT22;2585;48.696;10.066;2024-01-27T13:53:45;8.90;86.40
5134;DHT22;2585;48.696;10.066;2024-01-27T13:56:13;8.60;80.60
5134;DHT22;2585;48.696;10.066;2024-01-27T13:58:42;8.30;75.80
5134;DHT22;2585;48.696;10.066;2024-01-27T14:01:09;8.20;72.30
5134;DHT22;2585;48.696;10.066;2024-01-27T14:03:36;8.30;71.00
5134;DHT22;2585;48.696;10.066;2024-01-27T14:06:05;8.10;67.10
5134;DHT22;2585;48.696;10.066;2024-01-27T14:08:33;8.00;64.90
5134;DHT22;2585;48.696;10.066;2024-01-27T14:11:00;7.80;61.20
5134;DHT22;2585;48.696;10.066;2024-01-27T14:13:26;8.00;62.40
5134;DHT22;2585;48.696;10.066;2024-01-27T14:15:53;8.10;54.50
5134;DHT22;2585;48.696;10.066;2024-01-27T14:18:20;8.00;45.40
5134;DHT22;2585;48.696;10.066;2024-01-27T14:20:49;7.90;29.10
5134;DHT22;2585;48.696;10.066;2024-01-27T14:23:17;7.70;18.90
5134;DHT22;2585;48.696;10.066;2024-01-27T14:25:44;7.70;14.80
5134;DHT22;2585;48.696;10.066;2024-01-27T14:28:14;7.50;1.00
5134;DHT22;2585;48.696;10.066;2024-01-27T14:30:41;7.20;1.00
5134;DHT22;2585;48.696;10.066;2024-01-27T14:33:08;7.20;1.00
5134;DHT22;2585;48.696;10.066;2024-01-27T14:35:36;7.00;1.00
5134;DHT22;2585;48.696;10.066;2024-01-27T14:38:04;7.10;1.00
5134;DHT22;2585;48.696;10.066;2024-01-27T14:40:31;7.00;1.00
5134;DHT22;2585;48.696;10.066;2024-01-27T14:42:59;6.80;1.00
5134;DHT22;2585;48.696;10.066;2024-01-27T14:45:26;6.80;1.00
5134;DHT22;2585;48.696;10.066;2024-01-27T14:47:53;6.80;1.00
5134;DHT22;2585;48.696;10.066;2024-01-27T14:50:24;6.80;1.00
5134;DHT22;2585;48.696;10.066;2024-01-27T14:52:52;6.70;1.00
5134;DHT22;2585;48.696;10.066;2024-01-27T14:55:22;6.60;1.00
5134;DHT22;2585;48.696;10.066;2024-01-27T14:57:50;6.60;1.00
5134;DHT22;2585;48.696;10.066;2024-01-27T15:00:18;6.50;1.00
5134;DHT22;2585;48.696;10.066;2024-01-27T15:02:45;6.40;1.00
5134;DHT22;2585;48.696;10.066;2024-01-27T15:05:12;6.30;1.00
5134;DHT22;2585;48.696;10.066;2024-01-27T15:07:38;6.20;1.00
5134;DHT22;2585;48.696;10.066;2024-01-27T15:10:06;6.20;1.00
5134;DHT22;2585;48.696;10.066;2024-01-27T15:12:33;5.90;1.00
5134;DHT22;2585;48.696;10.066;2024-01-27T15:15:01;5.90;1.00
5134;DHT22;2585;48.696;10.066;2024-01-27T15:17:28;5.80;1.00
5134;DHT22;2585;48.696;10.066;2024-01-27T15:19:55;5.80;1.00
5134;DHT22;2585;48.696;10.066;2024-01-27T15:22:22;5.70;1.00
5134;DHT22;2585;48.696;10.066;2024-01-27T15:24:50;5.60;1.00
5134;DHT22;2585;48.696;10.066;2024-01-27T15:27:19;5.50;1.00
5134;DHT22;2585;48.696;10.066;2024-01-27T15:29:46;5.50;1.00
5134;DHT22;2585;48.696;10.066;2024-01-27T15:32:13;5.40;1.00
5134;DHT22;2585;48.696;10.066;2024-01-27T15:34:43;5.30;1.00
5134;DHT22;2585;48.696;10.066;2024-01-27T15:37:11;5.20;1.00
5134;DHT22;2585;48.696;10.066;2024-01-27T15:39:38;5.00;21.70
5134;DHT22;2585;48.696;10.066;2024-01-27T15:42:05;4.80;79.40
5134;DHT22;2585;48.696;10.066;2024-01-27T15:44:32;4.70;91.20
5134;DHT22;2585;48.696;10.066;2024-01-27T15:46:58;4.60;1.00
5134;DHT22;2585;48.696;10.066;2024-01-27T15:49:27;4.60;53.50
5134;DHT22;2585;48.696;10.066;2024-01-27T15:51:54;4.50;65.40
5134;DHT22;2585;48.696;10.066;2024-01-27T15:54:21;4.50;66.50
5134;DHT22;2585;48.696;10.066;2024-01-27T15:56:48;4.30;84.00
5134;DHT22;2585;48.696;10.066;2024-01-27T15:59:15;4.20;1.00
5134;DHT22;2585;48.696;10.066;2024-01-27T16:01:42;4.20;1.00